PWSweather.com
Personal Weather Stations
Station Observations

AwhituWaiuku, CA 268400

Lat: -37.058, Lon: -174.6346

Elevation: 250

Station Type: Personal

http://www.weather-display.com/windy/gb/grahamsbeach.htm

High Low Average
Temperature 66.8°F19.3°F 57.6°F14.2°F 61.7°F16.5°F
Dew Point 54.3°F12.4°F 46.7°F8.2°F 50.6°F10.3°F
Winds 32.2 mph WSW51.8 mph WSW 5.8 mph 9.3 mph 19.7 mph 31.7 mph
Wind Gusts 36.8 mph59.2 mph 5.8 mph9.3 mph 25.7 mph41.4 mph
Humidity 78% 59% 67%
Pressure 29.82 in1009.80 in 29.50 in999.00 in -
Precipitation 0.02 in0.50 in - -
Hour Temp Dew Point Humidity Winds Wind Gusts Pressure Precip Precip Rate Daily Precip Total
12:00 AM 57.8°F14.3°C 51.0°F10.6°C 78% 21.9 mph WSW35.2 kmh WSW 27.6 mph44.4 kmh 29.50 in999.0 mb - 0.00 in0.0 mm 0.00 in0.0 mm
12:30 AM 59.0°F15.0°C 52.1°F11.2°C 78% 31.1 mph WSW50.1 kmh WSW 36.8 mph59.2 kmh 29.50 in999.0 mb - 0.00 in0.0 mm 0.00 in0.0 mm
01:00 AM 58.9°F14.9°C 51.0°F10.6°C 75% 25.3 mph WSW40.7 kmh WSW 33.4 mph53.8 kmh 29.51 in999.3 mb - 0.00 in0.0 mm 0.00 in0.0 mm
01:30 AM 58.8°F14.9°C 49.4°F9.7°C 71% 24.2 mph WSW38.9 kmh WSW 29.9 mph48.1 kmh 29.51 in999.3 mb - 0.00 in0.0 mm 0.00 in0.0 mm
02:00 AM 58.4°F14.7°C 49.4°F9.7°C 72% 32.2 mph WSW51.8 kmh WSW 34.5 mph55.5 kmh 29.51 in999.3 mb - 0.01 in0.3 mm 0.01 in0.3 mm
02:30 AM 57.9°F14.4°C 48.6°F9.2°C 71% 26.5 mph WSW42.6 kmh WSW 34.5 mph55.5 kmh 29.52 in999.7 mb - 0.00 in0.0 mm 0.01 in0.3 mm
03:00 AM 58.1°F14.5°C 47.2°F8.4°C 67% 29.9 mph WSW48.1 kmh WSW 32.2 mph51.8 kmh 29.52 in999.7 mb - 0.00 in0.0 mm 0.01 in0.3 mm
03:30 AM 58.0°F14.4°C 48.3°F9.1°C 70% 18.4 mph WSW29.6 kmh WSW 24.2 mph38.9 kmh 29.53 in1000.0 mb - 0.00 in0.0 mm 0.01 in0.3 mm
04:00 AM 57.7°F14.3°C 48.7°F9.3°C 72% 23.0 mph WSW37.0 kmh WSW 32.2 mph51.8 kmh 29.54 in1000.3 mb - 0.00 in0.0 mm 0.01 in0.3 mm
04:30 AM 58.0°F14.4°C 47.5°F8.6°C 68% 26.5 mph WSW42.6 kmh WSW 31.1 mph50.1 kmh 29.55 in1000.7 mb - 0.00 in0.0 mm 0.01 in0.3 mm
05:00 AM 58.2°F14.6°C 48.5°F9.2°C 70% 23.0 mph SW37.0 kmh SW 28.8 mph46.3 kmh 29.57 in1001.4 mb - 0.00 in0.0 mm 0.01 in0.3 mm
05:30 AM 57.6°F14.2°C 46.7°F8.2°C 67% 21.9 mph WSW35.2 kmh WSW 29.9 mph48.1 kmh 29.59 in1002.0 mb - 0.00 in0.0 mm 0.01 in0.3 mm
06:00 AM 58.2°F14.6°C 48.1°F8.9°C 69% 17.3 mph WSW27.8 kmh WSW 24.2 mph38.9 kmh 29.61 in1002.7 mb - 0.00 in0.0 mm 0.01 in0.3 mm
06:30 AM 58.7°F14.8°C 47.7°F8.7°C 67% 19.6 mph WSW31.5 kmh WSW 26.5 mph42.6 kmh 29.63 in1003.4 mb - 0.00 in0.0 mm 0.01 in0.3 mm
07:00 AM 59.3°F15.2°C 50.2°F10.1°C 72% 18.4 mph SSW29.6 kmh SSW 24.2 mph38.9 kmh 29.65 in1004.1 mb - 0.00 in0.0 mm 0.01 in0.3 mm
07:30 AM 57.9°F14.4°C 50.0°F10.0°C 75% 16.1 mph WSW25.9 kmh WSW 27.6 mph44.4 kmh 29.65 in1004.1 mb - 0.00 in0.0 mm 0.01 in0.3 mm
08:00 AM 60.7°F15.9°C 50.5°F10.3°C 69% 19.6 mph SW31.5 kmh SW 26.5 mph42.6 kmh 29.66 in1004.4 mb - 0.00 in0.0 mm 0.01 in0.3 mm
08:30 AM 59.7°F15.4°C 51.0°F10.6°C 73% 11.5 mph SW18.5 kmh SW 19.6 mph31.5 kmh 29.67 in1004.7 mb - 0.00 in0.0 mm 0.01 in0.3 mm
09:00 AM 62.4°F16.9°C 52.0°F11.1°C 69% 23.0 mph WSW37.0 kmh WSW 31.1 mph50.1 kmh 29.68 in1005.1 mb - 0.00 in0.0 mm 0.01 in0.3 mm
09:30 AM 63.4°F17.4°C 50.6°F10.3°C 63% 18.4 mph WSW29.6 kmh WSW 26.5 mph42.6 kmh 29.68 in1005.1 mb - 0.01 in0.3 mm 0.02 in0.5 mm
10:00 AM 63.7°F17.6°C 50.4°F10.2°C 62% 18.4 mph SW29.6 kmh SW 20.7 mph33.3 kmh 29.70 in1005.8 mb - 0.00 in0.0 mm 0.02 in0.5 mm
10:30 AM 64.1°F17.8°C 50.4°F10.2°C 61% 20.7 mph SW33.3 kmh SW 25.3 mph40.7 kmh 29.71 in1006.1 mb - 0.00 in0.0 mm 0.02 in0.5 mm
11:00 AM 64.8°F18.2°C 50.6°F10.3°C 60% 17.3 mph SW27.8 kmh SW 20.7 mph33.3 kmh 29.73 in1006.8 mb - 0.00 in0.0 mm 0.02 in0.5 mm
11:30 AM 65.9°F18.8°C 51.2°F10.7°C 59% 19.6 mph SW31.5 kmh SW 25.3 mph40.7 kmh 29.73 in1006.8 mb - 0.00 in0.0 mm 0.02 in0.5 mm
12:00 PM 66.5°F19.2°C 52.6°F11.4°C 61% 17.3 mph SW27.8 kmh SW 20.7 mph33.3 kmh 29.74 in1007.1 mb - 0.00 in0.0 mm 0.02 in0.5 mm
12:30 PM 66.0°F18.9°C 53.9°F12.2°C 65% 18.4 mph WSW29.6 kmh WSW 25.3 mph40.7 kmh 29.75 in1007.5 mb - 0.00 in0.0 mm 0.02 in0.5 mm
01:00 PM 65.2°F18.4°C 54.3°F12.4°C 68% 18.4 mph WSW29.6 kmh WSW 24.2 mph38.9 kmh 29.75 in1007.5 mb - 0.00 in0.0 mm 0.02 in0.5 mm
01:30 PM 66.7°F19.3°C 52.4°F11.3°C 60% 13.8 mph SW22.2 kmh SW 20.7 mph33.3 kmh 29.76 in1007.8 mb - 0.00 in0.0 mm 0.02 in0.5 mm
02:00 PM 66.5°F19.2°C 52.6°F11.4°C 61% 18.4 mph SW29.6 kmh SW 26.5 mph42.6 kmh 29.77 in1008.1 mb - 0.00 in0.0 mm 0.02 in0.5 mm
02:30 PM 66.6°F19.2°C 53.6°F12.0°C 63% 19.6 mph SW31.5 kmh SW 24.2 mph38.9 kmh 29.77 in1008.1 mb - 0.00 in0.0 mm 0.02 in0.5 mm
03:00 PM 66.8°F19.3°C 53.8°F12.1°C 63% 13.8 mph WSW22.2 kmh WSW 19.6 mph31.5 kmh 29.77 in1008.1 mb - 0.00 in0.0 mm 0.02 in0.5 mm
03:30 PM 66.0°F18.9°C 52.6°F11.4°C 62% 11.5 mph SW18.5 kmh SW 15.0 mph24.1 kmh 29.77 in1008.1 mb - 0.00 in0.0 mm 0.02 in0.5 mm
04:00 PM 66.1°F18.9°C 52.3°F11.3°C 61% 17.3 mph WSW27.8 kmh WSW 19.6 mph31.5 kmh 29.77 in1008.1 mb - 0.00 in0.0 mm 0.02 in0.5 mm
04:30 PM 66.1°F18.9°C 52.3°F11.3°C 61% 11.5 mph S18.5 kmh S 24.2 mph38.9 kmh 29.77 in1008.1 mb - 0.00 in0.0 mm 0.02 in0.5 mm
07:30 PM 60.5°F15.8°C 50.7°F10.4°C 70% 5.8 mph SSW9.3 kmh SSW 5.8 mph9.3 kmh 29.82 in1009.8 mb - 0.00 in0.0 mm 0.02 in0.5 mm